createdAt,value
2019-05-01T04:25:30.567Z,20.27
2019-05-01T04:28:04.286Z,19.57
2019-05-01T04:30:57.013Z,19.47
2019-05-01T04:33:29.460Z,20.87
2019-05-01T04:36:05.044Z,20.50
2019-05-01T04:38:35.504Z,25.53
2019-05-01T04:41:05.784Z,28.70
2019-05-01T04:43:36.515Z,26.80
2019-05-01T04:46:06.813Z,24.77
2019-05-01T04:48:37.444Z,25.13
2019-05-01T04:51:09.579Z,29.43
2019-05-01T04:53:40.002Z,27.80
2019-05-01T04:56:10.488Z,27.83
2019-05-01T04:58:40.811Z,26.20
2019-05-01T05:01:11.115Z,28.97
2019-05-01T05:03:41.525Z,30.90
2019-05-01T05:06:11.815Z,34.73
2019-05-01T05:08:42.135Z,32.00
2019-05-01T05:11:17.552Z,35.10
2019-05-01T05:14:10.199Z,36.63
2019-05-01T05:17:05.798Z,37.47
2019-05-01T05:19:36.175Z,39.83
2019-05-01T05:22:06.581Z,41.63
2019-05-01T05:24:37.617Z,38.47
2019-05-01T05:27:08.910Z,40.27
2019-05-01T05:29:40.413Z,41.47
2019-05-01T05:32:12.425Z,39.90
2019-05-01T05:34:45.261Z,37.43
2019-05-01T05:37:25.769Z,39.13
2019-05-01T05:40:00.124Z,44.80
2019-05-01T05:42:31.418Z,42.37
2019-05-01T05:45:02.072Z,47.73
2019-05-01T05:47:32.666Z,42.03
2019-05-01T05:50:03.296Z,42.50
2019-05-01T05:52:49.427Z,42.83
2019-05-01T05:55:41.624Z,44.23
2019-05-01T05:58:31.901Z,45.87
2019-05-01T06:01:29.112Z,46.00
2019-05-01T06:04:19.759Z,46.37
2019-05-01T06:07:04.577Z,44.03
2019-05-01T06:09:50.636Z,42.77
2019-05-01T06:12:50.579Z,49.80
2019-05-01T06:15:49.122Z,44.07
2019-05-01T06:18:24.303Z,46.07
2019-05-01T06:21:03.961Z,47.13
2019-05-01T06:23:43.410Z,48.93
2019-05-01T06:26:47.939Z,44.73
2019-05-01T06:29:18.320Z,43.37
2019-05-01T06:31:48.824Z,45.50
2019-05-01T06:34:19.388Z,44.03
2019-05-01T06:36:51.382Z,42.50
2019-05-01T06:39:22.772Z,42.20
2019-05-01T06:41:54.025Z,41.10
2019-05-01T06:44:44.320Z,41.57
2019-05-01T06:47:43.121Z,40.33
2019-05-01T06:50:43.786Z,38.70
2019-05-01T06:53:14.195Z,35.30
2019-05-01T06:55:45.599Z,35.53
2019-05-01T06:58:20.417Z,35.37
2019-05-01T07:00:52.454Z,34.93
2019-05-01T07:03:23.453Z,33.23
2019-05-01T07:05:56.237Z,36.03
2019-05-01T07:08:29.543Z,37.40
2019-05-01T07:10:58.854Z,35.33
2019-05-01T07:13:29.126Z,35.00
2019-05-01T07:16:03.222Z,35.83
2019-05-01T07:18:31.676Z,32.37
2019-05-01T07:21:02.031Z,31.17
2019-05-01T07:23:32.502Z,31.53
2019-05-01T07:26:02.932Z,36.57
2019-05-01T07:28:36.224Z,31.13
2019-05-01T07:31:13.360Z,30.37
2019-05-01T07:33:46.988Z,31.93
2019-05-01T07:36:18.386Z,33.87
2019-05-01T07:38:48.887Z,32.47
2019-05-01T07:41:19.443Z,32.90
2019-05-01T07:43:59.754Z,31.07
2019-05-01T07:46:48.821Z,31.87
2019-05-01T07:49:19.318Z,30.57
2019-05-01T07:51:53.927Z,34.67
2019-05-01T07:54:24.420Z,32.47
2019-05-01T07:56:58.769Z,32.53
2019-05-01T07:59:28.638Z,33.47
2019-05-01T08:02:17.360Z,32.53
2019-05-01T08:04:47.641Z,37.93
2019-05-01T08:07:17.955Z,45.47
2019-05-01T08:09:50.279Z,29.17
2019-05-01T08:12:23.987Z,31.10
2019-05-01T08:14:53.572Z,32.17
2019-05-01T08:17:25.544Z,30.37
2019-05-01T08:20:00.735Z,30.50
2019-05-01T08:22:37.289Z,29.17
2019-05-01T08:25:06.445Z,29.80
2019-05-01T08:27:55.839Z,28.33
2019-05-01T08:30:40.336Z,31.63
2019-05-01T08:33:34.416Z,29.30
2019-05-01T08:36:11.831Z,30.03
2019-05-01T08:38:39.441Z,31.77
2019-05-01T08:41:09.733Z,32.50
2019-05-01T08:43:40.583Z,32.23
2019-05-01T08:46:28.697Z,28.83
2019-05-01T08:49:12.674Z,29.40
2019-05-01T08:51:42.989Z,27.63
2019-05-01T08:54:13.316Z,31.10
2019-05-01T08:56:43.907Z,32.17
2019-05-01T08:59:14.572Z,35.13
2019-05-01T09:01:45.809Z,30.80
2019-05-01T09:04:18.772Z,31.63
2019-05-01T09:06:49.360Z,30.27
2019-05-01T09:09:20.024Z,31.07
2019-05-01T09:11:50.445Z,30.73
2019-05-01T09:14:21.153Z,32.37
2019-05-01T09:16:52.617Z,33.40
2019-05-01T09:19:23.235Z,32.10
2019-05-01T09:21:53.520Z,32.37
2019-05-01T09:24:27.959Z,31.80
2019-05-01T09:27:31.092Z,32.77
2019-05-01T09:30:05.217Z,29.70
2019-05-01T09:32:35.576Z,26.40
2019-05-01T09:35:15.454Z,30.33
2019-05-01T09:37:39.039Z,30.63
2019-05-01T09:40:10.443Z,31.73
2019-05-01T09:42:42.172Z,29.17
2019-05-01T09:45:13.746Z,29.27
2019-05-01T09:47:48.616Z,25.40
2019-05-01T09:50:19.161Z,22.27
2019-05-01T09:53:07.506Z,24.13
2019-05-01T09:56:12.143Z,24.90
2019-05-01T09:58:42.487Z,24.05
2019-05-01T10:01:13.298Z,23.10
2019-05-01T10:03:44.983Z,21.70
2019-05-01T10:06:17.152Z,19.70
2019-05-01T10:08:49.053Z,21.07
2019-05-01T10:11:19.944Z,19.30
2019-05-01T10:13:53.739Z,17.07
2019-05-01T10:16:23.999Z,17.30
2019-05-01T10:18:55.120Z,18.30
2019-05-01T10:21:27.103Z,16.00
2019-05-01T10:23:58.278Z,16.87
2019-05-01T10:26:30.293Z,16.47
2019-05-01T10:29:14.381Z,17.70
2019-05-01T10:32:01.790Z,18.82
2019-05-01T10:34:56.726Z,14.03
2019-05-01T10:37:28.457Z,14.97
2019-05-01T10:39:58.144Z,13.63
2019-05-01T10:42:28.469Z,14.00
2019-05-01T10:44:58.793Z,11.97
2019-05-01T10:47:29.091Z,14.03
2019-05-01T10:50:01.172Z,13.90
2019-05-01T10:52:32.956Z,13.20
2019-05-01T10:55:03.268Z,19.07
2019-05-01T10:57:35.250Z,16.60
2019-05-01T11:00:06.776Z,16.67
2019-05-01T11:02:37.451Z,14.60
2019-05-01T11:05:07.943Z,16.13
2019-05-01T11:07:38.742Z,17.67
2019-05-01T11:10:09.260Z,16.07
2019-05-01T11:12:39.714Z,14.13
2019-05-01T11:15:10.587Z,18.67
2019-05-01T11:17:41.418Z,16.30
2019-05-01T11:20:12.596Z,14.10
2019-05-01T11:22:42.858Z,15.38
2019-05-01T11:25:15.544Z,11.93
2019-05-01T11:27:46.491Z,12.80
2019-05-01T11:30:16.864Z,12.47
2019-05-01T11:33:02.067Z,14.00
2019-05-01T11:35:50.729Z,14.90
2019-05-01T11:38:55.721Z,12.33
2019-05-01T11:41:51.878Z,15.57
2019-05-01T11:44:22.327Z,15.60
2019-05-01T11:46:53.749Z,13.88
2019-05-01T11:49:24.917Z,14.45
2019-05-01T11:51:58.361Z,14.58
2019-05-01T11:54:28.704Z,10.80
2019-05-01T11:56:59.186Z,11.77
2019-05-01T11:59:32.601Z,12.55
2019-05-01T12:02:02.547Z,10.20
2019-05-01T12:04:32.955Z,8.83
2019-05-01T12:07:04.581Z,13.13
2019-05-01T12:09:34.937Z,12.13
2019-05-01T12:12:10.144Z,11.83
2019-05-01T12:14:40.433Z,15.13
2019-05-01T12:17:20.609Z,14.78
2019-05-01T12:19:50.938Z,14.68
2019-05-01T12:22:21.250Z,11.80
2019-05-01T12:24:51.538Z,11.53
2019-05-01T12:27:21.874Z,13.05
2019-05-01T12:29:53.223Z,14.23
2019-05-01T12:32:23.547Z,14.23
2019-05-01T12:34:53.904Z,12.65
2019-05-01T12:37:43.193Z,16.07
2019-05-01T12:40:18.393Z,12.25
2019-05-01T12:42:48.774Z,13.10
2019-05-01T12:45:19.275Z,11.88
2019-05-01T12:47:54.826Z,10.60
2019-05-01T12:50:25.117Z,12.73
2019-05-01T12:53:14.405Z,12.40
2019-05-01T12:56:09.451Z,15.15
2019-05-01T12:58:39.779Z,10.80
2019-05-01T13:01:10.079Z,10.82
2019-05-01T13:03:40.404Z,12.88
2019-05-01T13:06:10.799Z,9.55
2019-05-01T13:08:41.125Z,10.18
2019-05-01T13:11:11.398Z,10.30
2019-05-01T13:13:41.756Z,12.88
2019-05-01T13:16:12.040Z,11.22
2019-05-01T13:18:42.369Z,10.72
2019-05-01T13:21:12.635Z,13.85
2019-05-01T13:23:42.968Z,13.13
2019-05-01T13:26:32.228Z,9.25
2019-05-01T13:29:23.701Z,11.05
2019-05-01T13:31:58.792Z,9.68
2019-05-01T13:34:29.166Z,9.65
2019-05-01T13:37:03.266Z,10.65
2019-05-01T13:39:31.875Z,10.08
2019-05-01T13:42:02.584Z,13.70
2019-05-01T13:44:32.872Z,10.88
2019-05-01T13:47:03.217Z,12.00
2019-05-01T13:49:34.224Z,9.88
2019-05-01T13:52:04.586Z,10.18
2019-05-01T13:54:34.880Z,10.88
2019-05-01T13:57:05.767Z,11.18
2019-05-01T13:59:36.072Z,11.05
2019-05-01T14:02:07.482Z,8.30
2019-05-01T14:04:37.919Z,11.93
2019-05-01T14:07:16.167Z,10.43
2019-05-01T14:09:40.987Z,11.73
2019-05-01T14:12:11.267Z,12.98
2019-05-01T14:14:41.794Z,11.00
2019-05-01T14:17:12.105Z,10.20
2019-05-01T14:19:45.021Z,10.98
2019-05-01T14:22:38.428Z,10.63
2019-05-01T14:25:09.907Z,11.93
2019-05-01T14:27:40.188Z,10.10
2019-05-01T14:30:11.135Z,10.03
2019-05-01T14:32:42.171Z,10.30
2019-05-01T14:35:13.001Z,10.32
2019-05-01T14:37:43.275Z,9.35
2019-05-01T14:40:13.683Z,10.68
2019-05-01T14:42:44.392Z,10.18
2019-05-01T14:45:14.931Z,8.75
2019-05-01T14:47:45.594Z,8.75
2019-05-01T14:50:16.293Z,8.95
2019-05-01T14:52:46.599Z,11.50
2019-05-01T14:55:17.219Z,9.33
2019-05-01T14:57:47.639Z,8.85
2019-05-01T15:00:18.648Z,8.85
2019-05-01T15:02:49.008Z,8.08
2019-05-01T15:05:19.324Z,7.78
2019-05-01T15:07:49.625Z,11.40
2019-05-01T15:10:19.963Z,8.25
2019-05-01T15:12:54.222Z,14.15
2019-05-01T15:15:49.468Z,11.33
2019-05-01T15:18:30.931Z,12.20
2019-05-01T15:21:02.010Z,10.13
2019-05-01T15:23:32.588Z,8.35
2019-05-01T15:26:03.312Z,9.73
2019-05-01T15:28:34.664Z,10.40
2019-05-01T15:31:05.069Z,8.20
2019-05-01T15:33:35.460Z,8.10
2019-05-01T15:36:05.995Z,10.45
2019-05-01T15:38:36.767Z,8.63
2019-05-01T15:41:15.129Z,8.58
2019-05-01T15:44:10.458Z,11.20
2019-05-01T15:46:40.835Z,9.60
2019-05-01T15:49:11.477Z,9.38
2019-05-01T15:51:43.018Z,9.43
2019-05-01T15:54:13.344Z,7.70
2019-05-01T15:56:43.882Z,9.58
2019-05-01T15:59:15.759Z,9.35
2019-05-01T16:01:46.351Z,12.25
2019-05-01T16:04:16.822Z,11.25
2019-05-01T16:06:47.196Z,9.20
2019-05-01T16:09:17.615Z,10.35
2019-05-01T16:12:12.671Z,11.55
2019-05-01T16:14:48.374Z,8.78
2019-05-01T16:17:20.543Z,10.05
2019-05-01T16:20:03.520Z,9.45
2019-05-01T16:22:34.574Z,11.28
2019-05-01T16:25:07.138Z,8.35
2019-05-01T16:27:38.794Z,12.18
2019-05-01T16:30:11.723Z,8.40
2019-05-01T16:32:42.238Z,8.93
2019-05-01T16:35:12.821Z,11.33
2019-05-01T16:37:46.801Z,9.35
2019-05-01T16:40:42.923Z,7.78
2019-05-01T16:43:15.150Z,9.73
2019-05-01T16:45:45.656Z,7.70
2019-05-01T16:48:16.061Z,10.23
2019-05-01T16:50:46.349Z,8.20
2019-05-01T16:53:16.636Z,8.30
2019-05-01T16:55:47.101Z,8.58
2019-05-01T16:58:17.871Z,8.48
2019-05-01T17:01:04.684Z,7.90
2019-05-01T17:03:52.724Z,8.20
2019-05-01T17:06:45.165Z,8.65
2019-05-01T17:09:40.327Z,9.35
2019-05-01T17:12:11.046Z,11.05
2019-05-01T17:14:41.698Z,8.45
2019-05-01T17:17:24.596Z,11.80
2019-05-01T17:19:54.938Z,9.60
2019-05-01T17:22:28.281Z,8.53
2019-05-01T17:24:59.308Z,8.55
2019-05-01T17:27:32.431Z,9.48
2019-05-01T17:30:05.096Z,8.40
2019-05-01T17:32:39.787Z,7.65
2019-05-01T17:35:09.458Z,8.73
2019-05-01T17:37:39.899Z,13.22
2019-05-01T17:40:17.254Z,7.28
2019-05-01T17:42:47.900Z,13.48
2019-05-01T17:45:18.382Z,11.95
2019-05-01T17:47:52.808Z,10.78
2019-05-01T17:50:22.353Z,10.05
2019-05-01T17:52:53.111Z,16.97
2019-05-01T17:55:25.658Z,8.50
2019-05-01T17:57:57.960Z,8.40
2019-05-01T18:00:47.391Z,10.35
2019-05-01T18:03:37.916Z,12.58
2019-05-01T18:06:18.306Z,8.65
2019-05-01T18:09:02.196Z,9.53
2019-05-01T18:11:21.732Z,9.45
2019-05-01T18:13:52.577Z,8.33
2019-05-01T18:16:23.045Z,7.90
2019-05-01T18:18:53.328Z,10.78
2019-05-01T18:21:23.735Z,10.45
2019-05-01T18:24:23.286Z,10.03
2019-05-01T18:27:18.926Z,9.47
2019-05-01T18:29:49.116Z,12.97
2019-05-01T18:32:26.756Z,12.20
2019-05-01T18:34:57.090Z,10.75
2019-05-01T18:37:35.158Z,10.07
2019-05-01T18:40:05.357Z,10.40
2019-05-01T18:42:35.793Z,11.45
2019-05-01T18:45:09.627Z,8.83
2019-05-01T18:47:40.198Z,9.90
2019-05-01T18:50:13.432Z,10.10
2019-05-01T18:52:42.647Z,9.93
2019-05-01T18:55:13.029Z,12.80
2019-05-01T18:57:43.379Z,10.50
2019-05-01T19:00:14.929Z,10.83
2019-05-01T19:02:45.336Z,13.32
2019-05-01T19:05:15.652Z,14.73
2019-05-01T19:07:46.004Z,12.43
2019-05-01T19:10:16.360Z,10.57
2019-05-01T19:12:46.878Z,10.00
2019-05-01T19:15:17.493Z,12.27
2019-05-01T19:17:47.890Z,9.27
2019-05-01T19:20:18.303Z,13.98
2019-05-01T19:22:49.084Z,11.00
2019-05-01T19:25:19.433Z,12.53
2019-05-01T19:27:50.185Z,14.90
2019-05-01T19:30:21.391Z,26.07
2019-05-01T19:32:52.657Z,17.67
2019-05-01T19:35:23.581Z,15.37
2019-05-01T19:37:57.604Z,14.70
2019-05-01T19:40:30.549Z,16.40
2019-05-01T19:43:00.420Z,12.43
2019-05-01T19:45:31.770Z,12.43
2019-05-01T19:48:02.315Z,15.03
2019-05-01T19:50:32.716Z,14.10
2019-05-01T19:53:03.745Z,12.57
2019-05-01T19:55:35.791Z,13.32
2019-05-01T19:58:06.200Z,11.60
2019-05-01T20:00:58.980Z,15.47
2019-05-01T20:03:30.682Z,13.77
2019-05-01T20:06:05.248Z,12.97
2019-05-01T20:08:34.974Z,13.70
2019-05-01T20:11:09.179Z,15.77
2019-05-01T20:13:38.412Z,15.87
2019-05-01T20:16:10.203Z,12.80
2019-05-01T20:18:41.566Z,13.07
2019-05-01T20:21:12.880Z,11.30
2019-05-01T20:23:43.991Z,13.90
2019-05-01T20:26:17.084Z,15.00
2019-05-01T20:28:51.921Z,14.50
2019-05-01T20:31:27.635Z,35.67
2019-05-01T20:33:57.662Z,45.03
2019-05-01T20:36:30.397Z,53.03
2019-05-01T20:39:01.900Z,51.93
2019-05-01T20:41:34.546Z,45.67
2019-05-01T20:44:05.380Z,45.80
2019-05-01T20:46:35.861Z,42.90
2019-05-01T20:49:06.767Z,46.03
2019-05-01T20:51:37.533Z,42.97
2019-05-01T20:54:08.012Z,43.57
2019-05-01T20:56:47.811Z,44.60
2019-05-01T20:59:21.582Z,46.00
2019-05-01T21:01:52.603Z,46.50
2019-05-01T21:04:49.227Z,42.40
2019-05-01T21:07:24.277Z,40.07
2019-05-01T21:09:57.870Z,47.33
2019-05-01T21:12:28.338Z,44.77
2019-05-01T21:15:00.006Z,45.53
2019-05-01T21:17:31.576Z,42.17
2019-05-01T21:20:03.833Z,47.33
2019-05-01T21:22:35.769Z,45.33
2019-05-01T21:25:06.250Z,43.77
2019-05-01T21:27:37.340Z,38.57
2019-05-01T21:30:08.193Z,40.33
2019-05-01T21:32:39.073Z,41.33
2019-05-01T21:35:13.744Z,37.13
2019-05-01T21:37:44.467Z,38.23
2019-05-01T21:40:14.829Z,37.83
2019-05-01T21:42:47.442Z,43.00
2019-05-01T21:45:17.332Z,36.90
2019-05-01T21:47:48.403Z,38.83
2019-05-01T21:50:22.874Z,42.43
2019-05-01T21:52:50.681Z,37.37
